Airfield :
LOGIN :

Register | Disclaimer

   EN    FR    IT 

 










Legend :    VFR   Marginal VFR   IFR   Intensive IFR   Very Intensive IFR
Visi :
Ceiling :
>= 8 km
>= 3000ft
5 to 8 km
1000 to 3000 ft
1500m to 5 km
500 to 1000 ft
800 to 1500m
200 to 500 ft
< 800m
< 200 ft
Symbols :   Thunderstorms  Fog  Heavy snow  Heavy precipitations  Wind > 20 kt
SIGMETs :     Misc.  Thunderstorms  Icing  Turbulence  Mountain Waves  Volcanic Ashes






- Airport Elevation : 154 ft
- IATA code : SZZ


EPSC - Szczecin Goleniow

CURRENT METAR :
  • 160600Z 28004KT 9999 OVC026 M04/M07 Q1022 R13/71//95

EXPIRED METARs :
  • 160530Z 28004KT 9999 OVC026 M04/M07 Q1022 R13/71//95
  • 160500Z 32006KT 9999 OVC027 M03/M07 Q1023 R13/71//95
  • 160430Z 31009KT 9999 OVC026 M04/M07 Q1023 R13/71//95
  • 160400Z 30008KT 9999 FEW023 OVC027 M04/M07 Q1023 R13/71//95
  • 160330Z 30009KT 9999 BKN027 M03/M06 Q1023 R13/71//95

TAF TAF EPSC
Valid from the 16 at 06:00 until the 17 at 06:00 UTC


160530Z 1606/1706 31010KT 9999 BKN025
PROB40
TEMPO 1606/1617 4500 -SN BR SCT005 BKN012
TEMPO 1617/1701 3000 SHSN BKN005 BKN014TCU
PROB40
TEMPO 1618/1622 1200 SHSN BKN002 BKN007CB
BECMG 1700/1703 09007KT



MET'MAP, your aeronautical weather chart ! - Copyright ORBIFLY December 2007 - Disclaimer

ORBIFLY MET'MAP TEAM :

Programming & Development : Alexandra Zaïnal
Concept & original design : Baudouin d'Aumeries
Assistance for programming : Marc-Olivier Méhu
Technical & hardware support : Manuel Goepfert

Contact : metmap@orbifly.com




SOURCES & CREDITS :

   NOAA